createdAt,value
2019-05-29T00:01:18.527Z,12.70
2019-05-29T00:03:43.769Z,12.70
2019-05-29T00:06:12.697Z,12.70
2019-05-29T00:08:41.455Z,12.70
2019-05-29T00:11:10.218Z,12.60
2019-05-29T00:13:39.009Z,12.60
2019-05-29T00:16:08.397Z,12.60
2019-05-29T00:18:37.178Z,12.60
2019-05-29T00:21:06.304Z,12.60
2019-05-29T00:23:35.191Z,12.60
2019-05-29T00:26:04.037Z,12.60
2019-05-29T00:28:32.802Z,12.70
2019-05-29T00:31:01.978Z,12.70
2019-05-29T00:33:30.703Z,12.70
2019-05-29T00:35:59.441Z,12.80
2019-05-29T00:38:31.848Z,12.80
2019-05-29T00:41:00.664Z,12.80
2019-05-29T00:43:30.395Z,12.80
2019-05-29T00:45:59.161Z,12.80
2019-05-29T00:48:27.923Z,12.80
2019-05-29T00:50:56.662Z,12.70
2019-05-29T00:53:25.411Z,12.80
2019-05-29T00:55:54.154Z,12.80
2019-05-29T00:58:22.925Z,12.80
2019-05-29T01:00:51.688Z,12.80
2019-05-29T01:03:20.435Z,12.80
2019-05-29T01:05:49.177Z,12.80
2019-05-29T01:08:18.461Z,12.70
2019-05-29T01:10:47.344Z,12.70
2019-05-29T01:13:17.211Z,12.70
2019-05-29T01:15:46.204Z,12.80
2019-05-29T01:18:15.765Z,12.80
2019-05-29T01:20:44.759Z,12.80
2019-05-29T01:23:14.181Z,12.70
2019-05-29T01:25:43.849Z,12.70
2019-05-29T01:28:12.721Z,12.70
2019-05-29T01:30:41.764Z,12.70
2019-05-29T01:33:10.541Z,12.70
2019-05-29T01:35:39.274Z,12.70
2019-05-29T01:38:08.037Z,12.60
2019-05-29T01:40:36.783Z,12.60
2019-05-29T01:43:05.609Z,12.60
2019-05-29T01:45:34.394Z,12.60
2019-05-29T01:48:03.160Z,12.60
2019-05-29T01:50:32.073Z,12.70
2019-05-29T01:53:00.894Z,12.70
2019-05-29T01:55:29.639Z,12.70
2019-05-29T01:57:58.441Z,12.60
2019-05-29T02:00:28.485Z,12.70
2019-05-29T02:02:57.328Z,12.60
2019-05-29T02:05:26.125Z,12.60
2019-05-29T02:07:54.887Z,12.50
2019-05-29T02:10:24.337Z,12.60
2019-05-29T02:12:53.242Z,12.50
2019-05-29T02:15:31.477Z,12.50
2019-05-29T02:17:52.610Z,12.60
2019-05-29T02:20:23.048Z,12.50
2019-05-29T02:22:52.069Z,12.60
2019-05-29T02:25:24.240Z,12.60
2019-05-29T02:27:53.152Z,12.70
2019-05-29T02:30:23.628Z,12.70
2019-05-29T02:32:52.921Z,12.70
2019-05-29T02:35:22.627Z,12.70
2019-05-29T02:37:52.130Z,12.70
2019-05-29T02:40:21.857Z,12.70
2019-05-29T02:42:51.752Z,12.60
2019-05-29T02:45:21.668Z,12.60
2019-05-29T02:47:51.156Z,12.80
2019-05-29T02:50:20.111Z,12.70
2019-05-29T02:52:50.504Z,12.70
2019-05-29T02:55:20.620Z,12.70
2019-05-29T02:57:49.733Z,12.70
2019-05-29T03:00:19.064Z,12.60
2019-05-29T03:02:47.798Z,12.60
2019-05-29T03:05:16.624Z,12.60
2019-05-29T03:07:45.461Z,12.60
2019-05-29T03:10:14.957Z,12.70
2019-05-29T03:12:44.544Z,12.80
2019-05-29T03:15:13.683Z,12.80
2019-05-29T03:17:42.415Z,12.80
2019-05-29T03:20:11.413Z,12.80
2019-05-29T03:22:40.203Z,12.90
2019-05-29T03:25:09.202Z,12.80
2019-05-29T03:27:39.236Z,12.90
2019-05-29T03:30:09.063Z,12.90
2019-05-29T03:32:46.306Z,12.90
2019-05-29T03:35:08.491Z,12.90
2019-05-29T03:37:38.740Z,12.90
2019-05-29T03:40:09.662Z,12.90
2019-05-29T03:42:39.201Z,12.90
2019-05-29T03:45:08.995Z,12.90
2019-05-29T03:47:37.876Z,12.80
2019-05-29T03:50:07.118Z,12.90
2019-05-29T03:52:36.253Z,12.90
2019-05-29T03:55:05.591Z,12.90
2019-05-29T03:57:38.180Z,12.80
2019-05-29T04:00:08.155Z,12.90
2019-05-29T04:02:38.273Z,12.80
2019-05-29T04:05:08.942Z,12.90
2019-05-29T04:07:38.413Z,12.90
2019-05-29T04:10:07.991Z,12.90
2019-05-29T04:12:38.040Z,13.00
2019-05-29T04:15:08.191Z,13.00
2019-05-29T04:17:38.999Z,13.00
2019-05-29T04:20:08.384Z,12.90
2019-05-29T04:22:42.712Z,12.90
2019-05-29T04:25:12.252Z,12.90
2019-05-29T04:27:42.643Z,12.90
2019-05-29T04:30:12.341Z,12.90
2019-05-29T04:32:41.134Z,12.90
2019-05-29T04:35:10.007Z,12.90
2019-05-29T04:37:39.900Z,12.90
2019-05-29T04:40:09.765Z,12.90
2019-05-29T04:42:40.112Z,12.90
2019-05-29T04:45:10.636Z,12.90
2019-05-29T04:47:40.304Z,13.00
2019-05-29T04:50:09.747Z,13.00
2019-05-29T04:52:40.228Z,13.00
2019-05-29T04:55:09.197Z,13.00
2019-05-29T04:57:39.413Z,13.00
2019-05-29T05:00:09.536Z,13.00
2019-05-29T05:02:39.409Z,13.00
2019-05-29T05:05:08.893Z,13.00
2019-05-29T05:07:37.643Z,13.10
2019-05-29T05:10:07.407Z,13.10
2019-05-29T05:12:37.827Z,13.10
2019-05-29T05:15:07.020Z,13.10
2019-05-29T05:17:36.044Z,13.10
2019-05-29T05:20:06.491Z,13.20
2019-05-29T05:22:36.374Z,13.20
2019-05-29T05:25:06.528Z,13.20
2019-05-29T05:27:36.341Z,13.20
2019-05-29T05:30:08.761Z,13.30
2019-05-29T05:32:36.841Z,13.20
2019-05-29T05:35:06.546Z,13.10
2019-05-29T05:37:35.345Z,13.10
2019-05-29T05:40:04.612Z,13.20
2019-05-29T05:42:33.356Z,13.30
2019-05-29T05:45:02.109Z,13.40
2019-05-29T05:47:44.992Z,13.50
2019-05-29T05:50:01.391Z,13.40
2019-05-29T05:52:31.214Z,13.40
2019-05-29T05:55:00.180Z,13.40
2019-05-29T05:57:28.909Z,13.40
2019-05-29T05:59:57.776Z,13.50
2019-05-29T06:02:26.588Z,13.60
2019-05-29T06:04:55.333Z,13.60
2019-05-29T06:07:24.097Z,13.60
2019-05-29T06:09:52.873Z,13.70
2019-05-29T06:12:21.606Z,13.80
2019-05-29T06:14:50.357Z,14.00
2019-05-29T06:17:21.857Z,14.00
2019-05-29T06:19:51.305Z,14.20
2019-05-29T06:22:20.138Z,14.60
2019-05-29T06:24:50.192Z,15.10
2019-05-29T06:27:18.989Z,15.30
2019-05-29T06:29:50.301Z,15.50
2019-05-29T06:32:19.082Z,15.60
2019-05-29T06:34:47.820Z,15.30
2019-05-29T06:37:16.562Z,15.30
2019-05-29T06:39:45.319Z,15.40
2019-05-29T06:42:14.172Z,15.30
2019-05-29T06:44:44.878Z,15.60
2019-05-29T06:47:14.258Z,16.10
2019-05-29T06:49:44.243Z,16.70
2019-05-29T06:52:13.222Z,17.50
2019-05-29T06:54:42.166Z,18.40
2019-05-29T06:57:10.948Z,19.40
2019-05-29T06:59:40.457Z,18.90
2019-05-29T07:02:09.637Z,18.50
2019-05-29T07:04:38.542Z,19.30
2019-05-29T07:07:07.305Z,19.50
2019-05-29T07:09:36.856Z,19.20
2019-05-29T07:12:05.750Z,20.80
2019-05-29T07:14:34.500Z,21.90
2019-05-29T07:17:03.242Z,23.00
2019-05-29T07:19:47.748Z,23.30
2019-05-29T07:22:02.468Z,23.70
2019-05-29T07:24:31.202Z,22.50
2019-05-29T07:26:59.975Z,24.30
2019-05-29T07:29:28.811Z,24.60
2019-05-29T07:31:57.572Z,24.60
2019-05-29T07:34:26.320Z,24.80
2019-05-29T07:36:55.113Z,25.60
2019-05-29T07:39:23.860Z,25.50
2019-05-29T07:41:53.249Z,26.10
2019-05-29T07:44:22.010Z,25.70
2019-05-29T07:46:50.738Z,25.70
2019-05-29T07:49:19.474Z,27.10
2019-05-29T07:51:48.831Z,27.20
2019-05-29T07:54:17.655Z,28.60
2019-05-29T07:56:46.659Z,29.30
2019-05-29T07:59:15.548Z,29.40
2019-05-29T08:01:44.835Z,28.50
2019-05-29T08:04:13.689Z,28.20
2019-05-29T08:06:48.320Z,28.40
2019-05-29T08:09:13.432Z,27.10
2019-05-29T08:11:43.441Z,26.80
2019-05-29T08:14:12.603Z,26.00
2019-05-29T08:16:41.913Z,25.70
2019-05-29T08:19:10.873Z,24.80
2019-05-29T08:21:41.049Z,24.90
2019-05-29T08:24:10.193Z,25.50
2019-05-29T08:26:38.935Z,25.50
2019-05-29T08:29:07.705Z,26.90
2019-05-29T08:31:36.430Z,27.40
2019-05-29T08:34:05.552Z,26.10
2019-05-29T08:36:34.306Z,26.00
2019-05-29T08:39:03.413Z,25.70
2019-05-29T08:41:32.190Z,25.30
2019-05-29T08:44:00.952Z,27.00
2019-05-29T08:46:33.168Z,26.00
2019-05-29T08:49:00.288Z,25.90
2019-05-29T08:51:29.038Z,26.20
2019-05-29T08:53:57.787Z,25.60
2019-05-29T08:56:28.385Z,25.20
2019-05-29T08:58:57.149Z,26.20
2019-05-29T09:01:25.893Z,28.30
2019-05-29T09:03:54.750Z,28.40
2019-05-29T09:06:23.798Z,28.30
2019-05-29T09:08:54.739Z,27.10
2019-05-29T09:11:23.207Z,27.40
2019-05-29T09:13:51.998Z,27.40
2019-05-29T09:16:20.857Z,26.50
2019-05-29T09:18:49.697Z,25.30
2019-05-29T09:21:19.180Z,26.00
2019-05-29T09:23:48.542Z,26.30
2019-05-29T09:26:22.130Z,25.90
2019-05-29T09:28:47.835Z,25.90
2019-05-29T09:31:18.229Z,24.70
2019-05-29T09:33:47.216Z,24.90
2019-05-29T09:36:17.183Z,27.00
2019-05-29T09:38:46.555Z,26.10
2019-05-29T09:41:16.183Z,24.50
2019-05-29T09:43:58.246Z,24.60
2019-05-29T09:46:18.183Z,25.70
2019-05-29T09:48:49.957Z,26.80
2019-05-29T09:51:21.660Z,29.60
2019-05-29T09:53:49.274Z,26.40
2019-05-29T09:56:18.009Z,23.20
2019-05-29T09:58:46.854Z,22.70
2019-05-29T10:01:23.394Z,25.70
2019-05-29T10:03:46.237Z,26.50
2019-05-29T10:06:15.005Z,27.90
2019-05-29T10:08:45.338Z,27.90
2019-05-29T10:11:14.124Z,25.60
2019-05-29T10:13:42.877Z,23.70
2019-05-29T10:16:11.656Z,23.80
2019-05-29T10:18:40.437Z,22.80
2019-05-29T10:21:09.314Z,23.50
2019-05-29T10:23:38.151Z,23.50
2019-05-29T10:26:06.879Z,22.10
2019-05-29T10:31:02.870Z,22.00
2019-05-29T10:31:06.338Z,21.80
2019-05-29T10:33:35.240Z,21.70
2019-05-29T10:36:05.696Z,20.90
2019-05-29T10:38:34.498Z,20.50
2019-05-29T10:41:06.832Z,20.50
2019-05-29T10:43:34.981Z,21.60
2019-05-29T10:46:04.479Z,24.00
2019-05-29T10:48:33.672Z,25.60
2019-05-29T10:51:02.446Z,27.00
2019-05-29T10:53:31.244Z,28.40
2019-05-29T10:55:59.980Z,26.90
2019-05-29T10:58:28.748Z,26.00
2019-05-29T11:00:59.588Z,26.10
2019-05-29T11:03:28.419Z,25.60
2019-05-29T11:05:57.181Z,26.10
2019-05-29T11:08:25.964Z,25.00
2019-05-29T11:10:54.692Z,25.40
2019-05-29T11:13:23.452Z,25.40
2019-05-29T11:15:52.838Z,24.20
2019-05-29T11:18:21.829Z,22.80
2019-05-29T11:20:51.361Z,24.80
2019-05-29T11:23:20.349Z,25.00
2019-05-29T11:25:49.896Z,24.70
2019-05-29T11:28:18.795Z,25.00
2019-05-29T11:30:48.649Z,25.10
2019-05-29T11:33:17.670Z,24.80
2019-05-29T11:35:58.075Z,24.70
2019-05-29T11:38:18.399Z,26.40
2019-05-29T11:40:47.474Z,26.90
2019-05-29T11:43:28.534Z,26.90
2019-05-29T11:45:57.525Z,25.50
2019-05-29T11:48:26.390Z,24.40
2019-05-29T11:50:56.172Z,24.00
2019-05-29T11:53:27.766Z,22.20
2019-05-29T11:55:57.659Z,22.00
2019-05-29T11:58:31.285Z,23.80
2019-05-29T12:00:57.285Z,25.20
2019-05-29T12:03:26.097Z,25.20
2019-05-29T12:05:55.369Z,25.90
2019-05-29T12:08:24.372Z,24.80
2019-05-29T12:10:53.242Z,24.00
2019-05-29T12:13:22.506Z,23.90
2019-05-29T12:15:51.533Z,25.30
2019-05-29T12:18:24.141Z,25.30
2019-05-29T12:20:52.099Z,25.70
2019-05-29T12:23:26.462Z,24.00
2019-05-29T12:26:11.593Z,23.30
2019-05-29T12:28:22.181Z,22.70
2019-05-29T12:30:55.182Z,22.50
2019-05-29T12:33:24.128Z,21.80
2019-05-29T12:35:53.122Z,22.20
2019-05-29T12:38:21.923Z,21.80
2019-05-29T12:40:50.650Z,21.40
2019-05-29T12:43:26.984Z,21.60
2019-05-29T12:45:53.485Z,22.30
2019-05-29T12:48:28.328Z,22.90
2019-05-29T12:51:00.300Z,22.90
2019-05-29T12:53:31.295Z,23.00
2019-05-29T12:56:06.147Z,22.90
2019-05-29T12:58:58.609Z,24.80
2019-05-29T13:01:27.530Z,24.90
2019-05-29T13:03:56.730Z,24.40
2019-05-29T13:06:29.967Z,23.50
2019-05-29T13:09:05.060Z,23.40
2019-05-29T13:11:39.728Z,22.90
2019-05-29T13:14:08.696Z,22.60
2019-05-29T13:16:37.445Z,22.10
2019-05-29T13:19:06.300Z,21.50
2019-05-29T13:21:35.193Z,22.00
2019-05-29T13:24:09.102Z,22.10
2019-05-29T13:26:34.580Z,22.10
2019-05-29T13:29:04.188Z,21.30
2019-05-29T13:31:33.261Z,21.60
2019-05-29T13:34:02.118Z,21.70
2019-05-29T13:36:30.924Z,23.00
2019-05-29T13:39:00.186Z,23.60
2019-05-29T13:41:30.180Z,23.00
2019-05-29T13:44:00.370Z,22.80
2019-05-29T13:46:29.413Z,22.50
2019-05-29T13:48:58.892Z,21.90
2019-05-29T13:51:27.975Z,21.80
2019-05-29T13:54:04.766Z,21.20
2019-05-29T13:56:27.325Z,21.10
2019-05-29T13:58:56.153Z,21.60
2019-05-29T14:01:24.923Z,21.80
2019-05-29T14:03:53.684Z,21.80
2019-05-29T14:06:22.640Z,21.50
2019-05-29T14:08:52.240Z,21.60
2019-05-29T14:11:21.609Z,21.50
2019-05-29T14:13:50.345Z,21.10
2019-05-29T14:16:19.167Z,20.90
2019-05-29T14:18:48.024Z,21.00
2019-05-29T14:21:17.074Z,21.20
2019-05-29T14:23:46.226Z,21.30
2019-05-29T14:26:14.968Z,20.90
2019-05-29T14:28:43.736Z,21.30
2019-05-29T14:31:12.584Z,21.20
2019-05-29T14:33:41.332Z,21.40
2019-05-29T14:36:11.369Z,21.40
2019-05-29T14:38:40.291Z,21.70
2019-05-29T14:41:10.262Z,21.80
2019-05-29T14:43:39.111Z,21.90
2019-05-29T14:46:08.165Z,22.00
2019-05-29T14:48:37.230Z,22.00
2019-05-29T14:51:06.610Z,22.30
2019-05-29T14:53:35.531Z,22.60
2019-05-29T14:56:04.545Z,22.50
2019-05-29T14:58:33.328Z,21.50
2019-05-29T15:01:03.085Z,21.90
2019-05-29T15:03:33.337Z,21.90
2019-05-29T15:06:03.446Z,21.50
2019-05-29T15:08:32.472Z,21.70
2019-05-29T15:11:01.205Z,21.40
2019-05-29T15:13:30.034Z,21.30
2019-05-29T15:15:58.792Z,21.40
2019-05-29T15:18:27.515Z,21.40
2019-05-29T15:20:56.256Z,21.50
2019-05-29T15:23:24.987Z,20.90
2019-05-29T15:25:55.402Z,20.50
2019-05-29T15:28:24.865Z,20.50
2019-05-29T15:30:53.644Z,20.60
2019-05-29T15:33:22.473Z,20.40
2019-05-29T15:35:52.565Z,20.50
2019-05-29T15:38:21.376Z,20.70
2019-05-29T15:40:50.157Z,20.70
2019-05-29T15:43:19.364Z,20.90
2019-05-29T15:45:48.127Z,21.00
2019-05-29T15:48:17.404Z,20.80
2019-05-29T15:50:46.383Z,21.10
2019-05-29T15:53:15.468Z,21.40
2019-05-29T15:55:44.212Z,21.20
2019-05-29T15:58:13.396Z,20.80
2019-05-29T16:00:42.531Z,20.90
2019-05-29T16:03:11.543Z,21.10
2019-05-29T16:05:40.377Z,20.90
2019-05-29T16:08:09.926Z,21.00
2019-05-29T16:10:38.908Z,20.80
2019-05-29T16:13:08.720Z,20.70
2019-05-29T16:15:37.582Z,21.20
2019-05-29T16:18:18.996Z,21.20
2019-05-29T16:20:37.068Z,21.00
2019-05-29T16:23:05.894Z,20.80
2019-05-29T16:25:39.974Z,20.70
2019-05-29T16:28:05.126Z,20.60
2019-05-29T16:30:33.879Z,20.50
2019-05-29T16:33:02.625Z,20.50
2019-05-29T16:35:31.412Z,20.40
2019-05-29T16:38:00.475Z,20.60
2019-05-29T16:40:29.233Z,20.50
2019-05-29T16:42:58.041Z,20.40
2019-05-29T16:45:26.965Z,20.20
2019-05-29T16:47:55.716Z,20.30
2019-05-29T16:50:24.923Z,20.30
2019-05-29T16:52:53.694Z,20.20
2019-05-29T16:55:23.118Z,20.40
2019-05-29T16:57:52.085Z,20.20
2019-05-29T17:00:21.895Z,20.10
2019-05-29T17:02:50.730Z,19.90
2019-05-29T17:05:22.193Z,20.10
2019-05-29T17:07:51.201Z,19.80
2019-05-29T17:10:24.507Z,19.80
2019-05-29T17:12:53.734Z,19.80
2019-05-29T17:15:22.862Z,19.70
2019-05-29T17:17:51.911Z,19.60
2019-05-29T17:20:37.304Z,19.70
2019-05-29T17:23:06.145Z,19.60
2019-05-29T17:25:35.386Z,19.40
2019-05-29T17:28:04.428Z,19.50
2019-05-29T17:30:33.426Z,19.50
2019-05-29T17:33:04.209Z,19.50
2019-05-29T17:35:33.093Z,19.40
2019-05-29T17:38:01.965Z,19.40
2019-05-29T17:40:31.131Z,19.20
2019-05-29T17:42:59.880Z,19.10
2019-05-29T17:45:28.642Z,19.10
2019-05-29T17:47:57.406Z,19.10
2019-05-29T17:50:26.705Z,19.20
2019-05-29T17:52:55.782Z,19.10
2019-05-29T17:55:24.940Z,19.20
2019-05-29T17:57:55.029Z,19.10
2019-05-29T18:00:24.621Z,19.00
2019-05-29T18:02:53.570Z,19.10
2019-05-29T18:05:24.654Z,19.00
2019-05-29T18:07:53.045Z,18.90
2019-05-29T18:10:25.720Z,18.80
2019-05-29T18:12:54.655Z,18.80
2019-05-29T18:15:25.689Z,18.80
2019-05-29T18:17:54.565Z,18.80
2019-05-29T18:20:23.764Z,18.70
2019-05-29T18:22:52.542Z,18.80
2019-05-29T18:25:21.890Z,19.20
2019-05-29T18:27:51.308Z,18.70
2019-05-29T18:30:20.676Z,18.50
2019-05-29T18:32:49.494Z,18.50
2019-05-29T18:35:19.011Z,18.50
2019-05-29T18:37:47.868Z,18.40
2019-05-29T18:40:18.207Z,18.30
2019-05-29T18:42:47.078Z,18.10
2019-05-29T18:45:20.997Z,18.10
2019-05-29T18:47:47.542Z,17.90
2019-05-29T19:34:15.312Z,15.10
2019-05-29T19:36:47.153Z,15.00
2019-05-29T19:39:17.531Z,14.80
2019-05-29T19:41:47.536Z,14.90
2019-05-29T19:44:19.129Z,14.90
2019-05-29T19:46:53.981Z,14.80
2019-05-29T19:49:21.198Z,14.80
2019-05-29T19:51:49.972Z,14.70
2019-05-29T19:54:31.435Z,14.70
2019-05-29T19:57:13.105Z,14.70
2019-05-29T19:59:44.607Z,14.60
2019-05-29T20:02:15.778Z,14.40
2019-05-29T20:04:46.538Z,14.40
2019-05-29T20:07:18.934Z,14.40
2019-05-29T20:09:57.761Z,14.40
2019-05-29T20:12:33.693Z,14.40
2019-05-29T20:15:07.758Z,14.40
2019-05-29T20:17:55.524Z,14.30
2019-05-29T20:20:28.189Z,14.30
2019-05-29T20:22:57.080Z,14.30
2019-05-29T20:25:28.822Z,14.40
2019-05-29T20:28:06.483Z,14.50
2019-05-29T20:30:39.173Z,14.40
2019-05-29T20:33:08.018Z,14.30
2019-05-29T20:35:41.648Z,14.30
2019-05-29T20:38:10.514Z,14.30
2019-05-29T20:40:39.525Z,14.20
2019-05-29T20:43:08.637Z,14.20
2019-05-29T20:45:39.711Z,14.20
2019-05-29T20:48:09.158Z,14.10
2019-05-29T20:50:46.340Z,14.00
2019-05-29T20:53:15.139Z,13.90
2019-05-29T20:55:46.134Z,13.60
2019-05-29T20:58:24.500Z,13.60
2019-05-29T21:00:50.776Z,13.60
2019-05-29T21:03:22.000Z,13.50
2019-05-29T21:05:50.741Z,13.50
2019-05-29T21:08:19.596Z,13.50
2019-05-29T21:10:49.640Z,13.40
2019-05-29T21:13:18.402Z,13.40
2019-05-29T21:15:49.462Z,13.40
2019-05-29T21:18:18.328Z,13.40
2019-05-29T21:20:53.618Z,13.50
2019-05-29T21:23:22.409Z,13.40
2019-05-29T21:25:55.330Z,13.30
2019-05-29T21:28:39.001Z,13.40
2019-05-29T21:30:54.625Z,13.30
2019-05-29T21:33:23.381Z,13.30
2019-05-29T21:35:53.621Z,13.20
2019-05-29T21:38:27.035Z,13.30
2019-05-29T21:40:55.262Z,13.30
2019-05-29T21:43:25.787Z,13.30
2019-05-29T21:45:56.683Z,13.20
2019-05-29T21:48:27.200Z,13.20
2019-05-29T21:50:55.967Z,13.30
2019-05-29T21:53:26.514Z,13.30
2019-05-29T21:55:55.351Z,13.30
2019-05-29T21:58:26.049Z,13.30
2019-05-29T22:00:57.606Z,13.40
2019-05-29T22:03:30.211Z,13.40
2019-05-29T22:05:59.445Z,13.50
2019-05-29T22:08:28.324Z,13.50
2019-05-29T22:11:01.776Z,13.50
2019-05-29T22:13:36.171Z,13.60
2019-05-29T22:16:07.293Z,13.60
2019-05-29T22:18:38.956Z,13.70
2019-05-29T22:21:09.027Z,13.80
2019-05-29T22:23:38.607Z,13.80
2019-05-29T22:26:10.844Z,13.90
2019-05-29T22:28:40.821Z,13.90
2019-05-29T22:31:13.971Z,13.80
2019-05-29T22:33:45.909Z,13.90
2019-05-29T22:36:22.147Z,13.80
2019-05-29T22:38:46.957Z,13.80
2019-05-29T22:41:22.941Z,13.70
2019-05-29T22:43:51.814Z,13.80
2019-05-29T22:46:24.821Z,13.70
2019-05-29T22:48:56.197Z,13.70
2019-05-29T22:51:34.422Z,13.60
2019-05-29T22:54:06.218Z,13.60
2019-05-29T22:56:37.064Z,13.60
2019-05-29T22:59:09.154Z,13.60
2019-05-29T23:01:37.842Z,13.70
2019-05-29T23:04:16.005Z,13.60
2019-05-29T23:06:48.783Z,13.60
2019-05-29T23:09:18.455Z,13.60
2019-05-29T23:11:47.898Z,13.70
2019-05-29T23:14:19.095Z,13.70
2019-05-29T23:16:52.945Z,13.80
2019-05-29T23:19:23.086Z,13.80
2019-05-29T23:21:52.415Z,13.90
2019-05-29T23:24:25.022Z,13.90
2019-05-29T23:26:55.001Z,13.90
2019-05-29T23:29:47.970Z,13.90
2019-05-29T23:32:03.352Z,13.90
2019-05-29T23:34:33.829Z,13.90
2019-05-29T23:37:06.561Z,13.90
2019-05-29T23:39:36.559Z,13.90
2019-05-29T23:42:13.067Z,13.90
2019-05-29T23:44:44.826Z,13.80
2019-05-29T23:47:18.238Z,13.80
2019-05-29T23:49:49.516Z,13.70
2019-05-29T23:52:24.699Z,13.70
2019-05-29T23:54:55.766Z,13.70
2019-05-29T23:57:29.378Z,13.60
